createdAt,value
2022-08-07T00:02:39.939Z,21.11
2022-08-07T00:05:28.758Z,21.18
2022-08-07T00:08:12.637Z,21.22
2022-08-07T00:10:58.326Z,21.21
2022-08-07T00:13:44.997Z,21.37
2022-08-07T00:16:29.727Z,21.32
2022-08-07T00:19:21.578Z,21.33
2022-08-07T00:22:09.071Z,21.31
2022-08-07T00:24:56.711Z,21.23
2022-08-07T00:27:53.125Z,21.16
2022-08-07T00:30:37.193Z,21.07
2022-08-07T00:33:26.500Z,21.10
2022-08-07T00:36:11.148Z,21.03
2022-08-07T00:38:55.173Z,21.15
2022-08-07T00:41:45.408Z,21.08
2022-08-07T00:44:38.351Z,21.21
2022-08-07T00:48:16.292Z,21.14
2022-08-07T00:50:46.097Z,21.12
2022-08-07T00:53:38.878Z,21.13
2022-08-07T00:56:33.953Z,21.12
2022-08-07T00:59:17.634Z,21.11
2022-08-07T01:02:04.030Z,21.12
2022-08-07T01:04:52.324Z,20.96
2022-08-07T01:07:37.737Z,20.92
2022-08-07T01:10:21.131Z,20.92
2022-08-07T01:13:04.346Z,20.94
2022-08-07T01:16:05.712Z,20.95
2022-08-07T01:18:49.447Z,20.90
2022-08-07T01:21:36.892Z,20.85
2022-08-07T01:24:21.652Z,20.83
2022-08-07T01:27:06.149Z,20.85
2022-08-07T01:30:06.021Z,20.80
2022-08-07T01:32:49.327Z,20.71
2022-08-07T01:35:53.165Z,20.70
2022-08-07T01:38:38.072Z,20.66
2022-08-07T01:41:26.239Z,20.68
2022-08-07T01:44:11.671Z,20.66
2022-08-07T01:46:56.512Z,20.69
2022-08-07T01:49:39.637Z,20.82
2022-08-07T01:52:27.121Z,20.78
2022-08-07T01:55:22.047Z,20.80
2022-08-07T01:58:29.358Z,20.81
2022-08-07T02:01:44.771Z,20.82
2022-08-07T02:04:30.331Z,20.97
2022-08-07T02:07:15.825Z,21.07
2022-08-07T02:10:00.315Z,21.13
2022-08-07T02:12:50.078Z,21.09
2022-08-07T02:15:35.321Z,21.02
2022-08-07T02:18:20.885Z,20.95
2022-08-07T02:21:13.875Z,20.77
2022-08-07T02:24:01.618Z,20.68
2022-08-07T02:26:48.632Z,20.77
2022-08-07T02:29:36.784Z,20.56
2022-08-07T02:32:29.941Z,20.33
2022-08-07T02:35:20.214Z,20.36
2022-08-07T02:38:06.512Z,20.41
2022-08-07T02:40:55.302Z,20.27
2022-08-07T02:43:47.640Z,20.08
2022-08-07T02:46:36.958Z,20.00
2022-08-07T02:49:58.965Z,19.88
2022-08-07T02:52:37.391Z,19.82
2022-08-07T02:55:28.809Z,19.83
2022-08-07T02:58:29.532Z,19.82
2022-08-07T03:01:36.540Z,19.89
2022-08-07T03:04:25.458Z,19.92
2022-08-07T03:07:10.506Z,19.88
2022-08-07T03:09:54.723Z,19.87
2022-08-07T03:12:38.967Z,19.77
2022-08-07T03:15:47.418Z,19.68
2022-08-07T03:18:34.808Z,19.70
2022-08-07T03:21:20.953Z,19.81
2022-08-07T03:24:19.990Z,19.88
2022-08-07T03:27:10.296Z,19.88
2022-08-07T03:29:54.341Z,19.89
2022-08-07T03:32:48.898Z,19.95
2022-08-07T03:35:43.691Z,19.96
2022-08-07T03:38:35.414Z,20.02
2022-08-07T03:41:18.790Z,19.99
2022-08-07T03:44:31.945Z,20.16
2022-08-07T03:47:18.150Z,20.24
2022-08-07T03:50:01.704Z,20.13
2022-08-07T03:52:46.321Z,20.19
2022-08-07T03:55:57.724Z,20.22
2022-08-07T03:59:08.386Z,20.19
2022-08-07T04:01:45.651Z,20.21
2022-08-07T04:04:29.208Z,20.24
2022-08-07T04:07:17.767Z,20.40
2022-08-07T04:10:06.893Z,20.46
2022-08-07T04:13:00.486Z,20.54
2022-08-07T04:15:46.006Z,20.67
2022-08-07T04:18:59.067Z,20.74
2022-08-07T04:21:36.369Z,20.87
2022-08-07T04:24:30.582Z,20.94
2022-08-07T04:27:25.329Z,21.10
2022-08-07T04:30:21.229Z,21.23
2022-08-07T04:33:15.964Z,21.40
2022-08-07T04:35:59.729Z,21.43
2022-08-07T04:38:42.936Z,21.47
2022-08-07T04:41:26.141Z,21.55
2022-08-07T04:44:11.427Z,21.67
2022-08-07T04:47:08.682Z,21.75
2022-08-07T04:50:04.098Z,21.81
2022-08-07T04:52:54.855Z,21.83
2022-08-07T04:58:09.385Z,21.90
2022-08-07T05:00:07.884Z,22.07
2022-08-07T05:02:03.135Z,22.21
2022-08-07T05:04:54.973Z,22.31
2022-08-07T05:07:51.752Z,22.40
2022-08-07T05:10:45.325Z,22.41
2022-08-07T05:14:54.219Z,22.43
2022-08-07T05:16:57.235Z,22.56
2022-08-07T05:19:50.232Z,22.60
2022-08-07T05:22:37.241Z,22.67
2022-08-07T05:25:36.706Z,22.65
2022-08-07T05:28:29.008Z,22.59
2022-08-07T05:31:16.576Z,22.61
2022-08-07T05:34:04.556Z,22.66
2022-08-07T05:36:53.183Z,22.71
2022-08-07T05:40:16.687Z,22.80
2022-08-07T05:42:41.143Z,22.89
2022-08-07T05:45:46.956Z,22.98
2022-08-07T05:48:30.689Z,23.13
2022-08-07T05:51:18.177Z,23.50
2022-08-07T05:54:12.100Z,23.62
2022-08-07T05:57:10.563Z,23.92
2022-08-07T05:59:58.200Z,24.03
2022-08-07T06:02:42.257Z,24.28
2022-08-07T06:05:28.815Z,24.61
2022-08-07T06:08:30.937Z,24.81
2022-08-07T06:11:19.425Z,25.01
2022-08-07T06:14:12.076Z,25.20
2022-08-07T06:16:57.965Z,25.47
2022-08-07T06:19:52.192Z,25.66
2022-08-07T06:22:50.771Z,25.95
2022-08-07T06:25:54.794Z,26.21
2022-08-07T06:28:52.909Z,26.43
2022-08-07T06:31:46.937Z,26.69
2022-08-07T06:34:33.376Z,26.87
2022-08-07T06:37:19.077Z,27.09
2022-08-07T06:40:13.535Z,27.12
2022-08-07T06:43:07.262Z,27.25
2022-08-07T06:46:06.435Z,27.46
2022-08-07T06:48:56.962Z,27.58
2022-08-07T06:51:50.100Z,27.83
2022-08-07T06:55:31.420Z,28.21
2022-08-07T06:57:43.566Z,28.32
2022-08-07T07:00:39.186Z,28.53
2022-08-07T07:03:48.972Z,28.76
2022-08-07T07:06:30.589Z,29.03
2022-08-07T07:09:21.168Z,29.23
2022-08-07T07:12:26.698Z,29.20
2022-08-07T07:15:24.123Z,29.46
2022-08-07T07:18:19.133Z,29.74
2022-08-07T07:21:27.355Z,29.89
2022-08-07T07:24:29.029Z,30.06
2022-08-07T07:27:18.266Z,30.52
2022-08-07T07:30:08.895Z,30.64
2022-08-07T07:32:55.977Z,31.02
2022-08-07T07:35:50.615Z,31.52
2022-08-07T07:38:47.545Z,32.24
2022-08-07T07:42:01.826Z,32.97
2022-08-07T07:44:39.869Z,33.74
2022-08-07T07:47:25.884Z,34.53
2022-08-07T07:50:32.740Z,35.83
2022-08-07T07:53:23.143Z,37.72
2022-08-07T07:56:11.981Z,39.00
2022-08-07T07:58:57.351Z,39.59
2022-08-07T08:02:03.775Z,39.82
2022-08-07T08:04:50.451Z,40.35
2022-08-07T08:07:42.159Z,40.99
2022-08-07T08:10:38.691Z,41.31
2022-08-07T08:13:26.245Z,41.72
2022-08-07T08:16:25.141Z,42.09
2022-08-07T08:20:15.841Z,41.95
2022-08-07T08:22:36.714Z,41.79
2022-08-07T08:26:04.617Z,42.12
2022-08-07T08:28:53.539Z,42.23
2022-08-07T08:32:16.786Z,40.29
2022-08-07T08:34:46.122Z,40.91
2022-08-07T08:38:00.901Z,41.89
2022-08-07T08:40:43.918Z,41.62
2022-08-07T08:43:42.185Z,41.91
2022-08-07T08:46:38.246Z,42.26
2022-08-07T08:49:46.365Z,40.56
2022-08-07T08:52:40.830Z,37.96
2022-08-07T08:55:53.713Z,37.53
2022-08-07T08:58:54.474Z,39.56
2022-08-07T09:01:46.543Z,39.43
2022-08-07T09:04:42.782Z,40.33
2022-08-07T09:07:46.124Z,38.94
2022-08-07T09:10:39.137Z,38.50
2022-08-07T09:13:44.547Z,39.29
2022-08-07T09:16:37.902Z,39.29
2022-08-07T09:19:51.752Z,39.36
2022-08-07T09:24:33.795Z,39.64
2022-08-07T09:26:10.265Z,39.13
2022-08-07T09:30:01.793Z,37.72
2022-08-07T09:32:17.086Z,37.64
2022-08-07T09:36:00.974Z,38.75
2022-08-07T09:38:26.777Z,40.27
2022-08-07T09:41:19.630Z,41.56
2022-08-07T09:44:32.828Z,42.49
2022-08-07T09:48:01.523Z,42.90
2022-08-07T09:50:53.577Z,43.35
2022-08-07T09:53:53.718Z,42.54
2022-08-07T09:57:22.132Z,40.68
2022-08-07T10:00:14.743Z,40.75
2022-08-07T10:04:03.303Z,38.87
2022-08-07T10:06:39.884Z,37.00
2022-08-07T10:10:01.148Z,39.14
2022-08-07T10:13:03.723Z,40.00
2022-08-07T10:15:55.592Z,40.14
2022-08-07T10:18:59.246Z,40.54
2022-08-07T10:22:15.811Z,40.41
2022-08-07T10:25:20.866Z,41.17
2022-08-07T10:28:24.313Z,41.54
2022-08-07T10:31:38.787Z,41.31
2022-08-07T10:34:38.363Z,38.72
2022-08-07T10:37:48.193Z,38.32
2022-08-07T10:40:44.437Z,39.75
2022-08-07T10:43:34.655Z,40.79
2022-08-07T10:46:24.828Z,41.01
2022-08-07T10:49:15.854Z,39.19
2022-08-07T10:52:14.091Z,39.27
2022-08-07T10:55:07.940Z,37.41
2022-08-07T10:58:24.939Z,35.63
2022-08-07T11:01:35.759Z,34.51
2022-08-07T11:04:47.538Z,33.10
2022-08-07T11:07:58.833Z,32.36
2022-08-07T11:10:57.825Z,31.30
2022-08-07T11:14:46.401Z,31.00
2022-08-07T11:17:01.352Z,31.08
2022-08-07T11:19:51.011Z,31.49
2022-08-07T11:22:45.619Z,32.03
2022-08-07T11:25:36.056Z,32.37
2022-08-07T11:28:37.851Z,32.19
2022-08-07T11:31:33.301Z,32.15
2022-08-07T11:34:23.343Z,31.80
2022-08-07T11:37:14.398Z,31.56
2022-08-07T11:40:12.012Z,31.47
2022-08-07T11:43:09.364Z,31.89
2022-08-07T11:46:22.290Z,32.12
2022-08-07T11:49:51.345Z,31.97
2022-08-07T11:52:51.641Z,31.90
2022-08-07T11:56:24.891Z,31.68
2022-08-07T12:00:08.816Z,31.40
2022-08-07T12:02:52.720Z,31.18
2022-08-07T12:05:49.560Z,31.10
2022-08-07T12:08:39.311Z,31.23
2022-08-07T12:11:32.485Z,31.20
2022-08-07T12:14:20.866Z,31.16
2022-08-07T12:17:08.762Z,30.90
2022-08-07T12:20:30.486Z,30.50
2022-08-07T12:24:04.762Z,30.47
2022-08-07T12:26:35.494Z,30.29
2022-08-07T12:29:38.333Z,30.01
2022-08-07T12:32:31.200Z,30.06
2022-08-07T12:35:20.187Z,30.10
2022-08-07T12:38:16.882Z,30.14
2022-08-07T12:41:15.119Z,30.05
2022-08-07T12:44:04.005Z,30.08
2022-08-07T12:47:01.882Z,30.09
2022-08-07T12:50:04.590Z,30.13
2022-08-07T12:53:05.166Z,30.14
2022-08-07T12:56:11.543Z,30.21
2022-08-07T12:58:58.083Z,30.26
2022-08-07T13:01:55.716Z,30.42
2022-08-07T13:05:10.318Z,30.59
2022-08-07T13:08:24.122Z,30.27
2022-08-07T13:11:25.423Z,30.12
2022-08-07T13:14:22.080Z,29.84
2022-08-07T13:17:13.190Z,29.77
2022-08-07T13:20:08.906Z,29.65
2022-08-07T13:23:03.918Z,29.52
2022-08-07T13:26:16.085Z,29.52
2022-08-07T13:29:11.993Z,29.59
2022-08-07T13:32:06.238Z,29.55
2022-08-07T13:35:09.305Z,29.46
2022-08-07T13:38:01.047Z,29.54
2022-08-07T13:40:51.036Z,29.48
2022-08-07T13:43:44.777Z,29.54
2022-08-07T13:46:49.522Z,29.74
2022-08-07T13:50:33.119Z,29.75
2022-08-07T13:52:46.887Z,30.00
2022-08-07T13:55:33.993Z,29.97
2022-08-07T13:58:39.027Z,29.86
2022-08-07T14:01:33.233Z,29.13
2022-08-07T14:04:38.081Z,28.38
2022-08-07T14:07:33.544Z,27.36
2022-08-07T14:10:24.533Z,26.73
2022-08-07T14:13:16.260Z,26.46
2022-08-07T14:16:06.239Z,26.34
2022-08-07T14:19:04.742Z,26.13
2022-08-07T14:22:03.134Z,26.00
2022-08-07T14:24:52.601Z,25.97
2022-08-07T14:28:10.557Z,26.10
2022-08-07T14:30:51.971Z,26.13
2022-08-07T14:33:45.256Z,26.14
2022-08-07T14:36:35.041Z,26.18
2022-08-07T14:40:16.042Z,26.21
2022-08-07T14:42:32.271Z,26.33
2022-08-07T14:45:21.691Z,26.41
2022-08-07T14:48:08.796Z,26.57
2022-08-07T14:51:16.306Z,26.66
2022-08-07T14:54:31.209Z,26.62
2022-08-07T14:57:11.082Z,26.64
2022-08-07T15:00:05.322Z,26.63
2022-08-07T15:02:56.905Z,26.62
2022-08-07T15:05:55.354Z,26.53
2022-08-07T15:08:54.742Z,26.45
2022-08-07T15:11:50.790Z,26.44
2022-08-07T15:14:57.808Z,26.37
2022-08-07T15:17:55.134Z,26.38
2022-08-07T15:20:55.050Z,26.44
2022-08-07T15:25:03.065Z,26.44
2022-08-07T15:27:01.468Z,26.42
2022-08-07T15:33:03.675Z,26.38
2022-08-07T15:38:59.638Z,26.11
2022-08-07T15:42:46.080Z,26.08
2022-08-07T15:45:09.522Z,26.11
2022-08-07T15:51:12.014Z,26.09
2022-08-07T15:54:00.005Z,26.03
2022-08-07T15:56:48.166Z,26.09
2022-08-07T15:59:40.005Z,26.20
2022-08-07T16:02:31.151Z,26.14
2022-08-07T16:05:17.644Z,26.15
2022-08-07T16:08:33.706Z,26.22
2022-08-07T16:11:27.360Z,26.23
2022-08-07T16:14:17.262Z,26.35
2022-08-07T16:17:16.266Z,26.42
2022-08-07T16:20:39.664Z,26.42
2022-08-07T16:23:54.603Z,26.32
2022-08-07T16:26:59.206Z,26.22
2022-08-07T16:30:29.618Z,26.16
2022-08-07T16:34:02.860Z,26.19
2022-08-07T16:36:31.249Z,26.05
2022-08-07T16:39:48.682Z,26.03
2022-08-07T16:42:48.337Z,26.02
2022-08-07T16:46:47.621Z,25.93
2022-08-07T16:50:28.729Z,25.83
2022-08-07T16:52:55.412Z,25.74
2022-08-07T16:55:47.004Z,25.67
2022-08-07T16:59:14.793Z,25.62
2022-08-07T17:02:02.935Z,25.58
2022-08-07T17:05:00.832Z,25.56
2022-08-07T17:07:57.968Z,25.52
2022-08-07T17:14:19.333Z,25.29
2022-08-07T17:17:15.464Z,25.21
2022-08-07T17:20:14.081Z,25.13
2022-08-07T17:23:12.891Z,25.08
2022-08-07T17:26:24.052Z,25.08
2022-08-07T17:30:14.410Z,25.02
2022-08-07T17:32:30.344Z,24.90
2022-08-07T17:35:51.177Z,24.83
2022-08-07T17:38:34.102Z,24.73
2022-08-07T17:42:03.607Z,24.74
2022-08-07T17:44:34.130Z,24.70
2022-08-07T17:47:42.663Z,24.65
2022-08-07T17:50:46.955Z,24.64
2022-08-07T17:54:01.081Z,24.59
2022-08-07T17:56:52.592Z,24.63
2022-08-07T17:59:43.464Z,24.55
2022-08-07T18:02:33.732Z,24.58
2022-08-07T18:06:03.447Z,24.56
2022-08-07T18:09:01.232Z,24.51
2022-08-07T18:12:12.003Z,24.51
2022-08-07T18:15:01.085Z,24.49
2022-08-07T18:19:02.377Z,24.45
2022-08-07T18:21:37.189Z,24.40
2022-08-07T18:24:12.314Z,24.40
2022-08-07T18:27:39.189Z,24.41
2022-08-07T18:30:36.784Z,24.40
2022-08-07T18:33:58.507Z,24.37
2022-08-07T18:36:54.376Z,24.34
2022-08-07T18:40:08.172Z,24.26
2022-08-07T18:43:03.993Z,24.21
2022-08-07T18:46:24.567Z,24.18
2022-08-07T18:50:32.730Z,24.12
2022-08-07T18:52:55.008Z,24.07
2022-08-07T18:55:57.278Z,24.05
2022-08-07T18:58:54.463Z,24.14
2022-08-07T19:02:18.920Z,24.08
2022-08-07T19:05:10.460Z,24.01
2022-08-07T19:08:05.595Z,23.99
2022-08-07T19:10:57.047Z,23.99
2022-08-07T19:13:56.321Z,23.83
2022-08-07T19:17:04.537Z,23.66
2022-08-07T19:19:58.075Z,23.57
2022-08-07T19:22:55.647Z,23.56
2022-08-07T19:26:22.738Z,23.55
2022-08-07T19:30:54.832Z,23.48
2022-08-07T19:32:18.819Z,23.60
2022-08-07T19:35:12.493Z,23.63
2022-08-07T19:37:59.753Z,23.54
2022-08-07T19:40:49.711Z,23.50
2022-08-07T19:43:46.070Z,23.51
2022-08-07T19:46:41.076Z,23.43
2022-08-07T19:49:57.370Z,23.29
2022-08-07T19:52:42.533Z,23.22
2022-08-07T19:55:46.787Z,23.11
2022-08-07T19:58:34.409Z,23.12
2022-08-07T20:01:18.847Z,23.03
2022-08-07T20:04:08.588Z,22.92
2022-08-07T20:06:56.375Z,22.85
2022-08-07T20:10:37.369Z,22.82
2022-08-07T20:12:51.543Z,22.72
2022-08-07T20:15:39.015Z,22.72
2022-08-07T20:18:32.272Z,22.73
2022-08-07T20:21:22.469Z,22.72
2022-08-07T20:24:13.433Z,22.75
2022-08-07T20:26:59.505Z,22.66
2022-08-07T20:29:57.505Z,22.70
2022-08-07T20:32:46.701Z,22.63
2022-08-07T20:35:54.340Z,22.56
2022-08-07T20:38:53.338Z,22.54
2022-08-07T20:41:50.601Z,22.56
2022-08-07T20:44:39.165Z,22.46
2022-08-07T20:47:26.043Z,22.39
2022-08-07T20:50:30.502Z,22.34
2022-08-07T20:53:15.707Z,22.27
2022-08-07T20:56:02.626Z,22.28
2022-08-07T20:58:53.200Z,22.26
2022-08-07T21:01:45.807Z,22.31
2022-08-07T21:04:38.843Z,22.34
2022-08-07T21:07:23.361Z,22.30
2022-08-07T21:10:11.628Z,22.10
2022-08-07T21:12:58.422Z,21.98
2022-08-07T21:15:58.107Z,21.98
2022-08-07T21:18:45.972Z,22.03
2022-08-07T21:21:33.093Z,21.91
2022-08-07T21:24:48.045Z,21.89
2022-08-07T21:27:40.125Z,21.91
2022-08-07T21:30:41.885Z,21.63
2022-08-07T21:33:41.420Z,21.55
2022-08-07T21:36:35.837Z,21.48
2022-08-07T21:39:47.564Z,21.38
2022-08-07T21:42:46.064Z,21.38
2022-08-07T21:46:08.814Z,21.34
2022-08-07T21:48:56.711Z,21.42
2022-08-07T21:51:51.493Z,21.26
2022-08-07T21:54:56.017Z,21.22
2022-08-07T21:58:00.331Z,21.20
2022-08-07T22:00:54.172Z,21.34
2022-08-07T22:03:43.910Z,21.27
2022-08-07T22:06:32.579Z,21.17
2022-08-07T22:09:25.425Z,21.14
2022-08-07T22:12:15.550Z,21.24
2022-08-07T22:16:44.090Z,21.20
2022-08-07T22:18:25.325Z,21.09
2022-08-07T22:21:16.648Z,21.13
2022-08-07T22:24:10.662Z,20.94
2022-08-07T22:27:03.255Z,20.74
2022-08-07T22:29:53.377Z,20.64
2022-08-07T22:32:42.199Z,20.72
2022-08-07T22:35:40.311Z,20.59
2022-08-07T22:38:37.120Z,20.55
